Date,TemperatureHighF,TemperatureAvgF,TemperatureLowF,DewpointHighF,DewpointAvgF,DewpointLowF,HumidityHigh,HumidityAvg,HumidityLow,PressureMaxIn,PressureMinIn,WindSpeedMaxMPH,WindSpeedAvgMPH,GustSpeedMaxMPH,PrecipitationSumIn
2013-1-1,44,32,26,35,26,23,98,80,50,30.09,30.00,6,1,6,0.00
2013-1-2,45,31,23,34,24,20,98,76,48,30.00,29.85,9,2,9,0.00
2013-1-3,39,31,23,33,26,21,98,82,65,29.91,29.80,6,1,6,0.00
2013-1-4,50,39,33,45,36,30,98,89,76,30.00,29.83,6,1,6,0.00
2013-1-5,40,37,35,36,32,28,97,82,71,29.88,29.83,6,1,6,0.00
2013-1-6,45,40,36,44,39,36,98,97,93,29.91,29.74,11,1,11,0.12
2013-1-7,52,48,45,51,47,44,98,96,91,29.88,29.65,16,5,16,0.24
2013-1-8,56,51,45,50,48,45,98,88,77,29.88,29.59,19,6,19,0.04
2013-1-9,51,43,33,47,40,33,98,90,73,29.65,29.38,13,3,13,0.20
2013-1-10,45,37,32,40,35,32,98,95,75,29.77,29.65,7,2,7,0.04
2013-1-11,43,31,26,35,29,25,98,91,59,29.97,29.77,7,1,7,0.00
2013-1-12,38,28,24,34,27,23,98,96,82,30.06,29.94,5,1,5,0.00
2013-1-13,30,29,28,28,27,25,98,93,87,30.15,30.06,5,1,5,0.00
2013-1-14,35,31,28,33,29,26,98,91,82,30.21,30.15,5,1,5,0.00
2013-1-15,40,36,32,38,34,32,98,95,86,30.30,30.21,6,1,6,0.00
2013-1-16,36,34,33,35,34,33,98,97,95,30.30,30.15,6,1,6,0.00
2013-1-17,44,34,29,36,32,28,98,92,69,30.15,29.97,6,1,6,0.00
2013-1-18,33,30,27,32,29,27,98,98,98,30.00,29.94,4,0,4,0.00
2013-1-19,34,31,29,34,30,28,98,98,97,30.03,29.94,4,0,4,0.00
2013-1-20,37,31,28,34,30,28,98,97,85,30.03,29.91,5,1,5,0.00
2013-1-21,34,30,27,31,28,27,98,95,83,29.97,29.83,5,1,5,0.00
2013-1-22,44,30,26,35,28,26,98,93,70,29.83,29.62,6,1,6,0.00
2013-1-23,37,33,30,35,32,29,98,96,77,29.88,29.56,5,0,5,0.20
2013-1-24,39,36,33,39,36,33,98,98,98,29.88,29.77,5,1,5,0.31
2013-1-25,55,44,36,54,43,36,98,97,91,29.80,29.65,6,0,6,0.16
2013-1-26,49,42,39,43,40,38,98,94,72,29.77,29.62,10,3,10,0.16
2013-1-27,45,40,37,42,40,36,98,97,85,29.83,29.74,9,3,9,0.16
2013-1-28,45,42,39,43,41,39,98,97,91,29.88,29.77,12,4,12,0.24
2013-1-29,48,45,43,47,44,42,98,97,92,30.15,29.88,10,4,10,0.08
2013-1-30,50,47,43,48,45,43,98,95,87,30.12,30.09,14,6,14,0.04
2013-1-31,56,49,44,50,45,43,98,87,64,30.12,30.00,5,1,5,0.00
2013-2-1,56,46,36,49,42,35,98,89,62,30.03,29.91,8,2,8,0.00
2013-2-2,53,39,31,44,36,30,98,92,69,29.97,29.91,5,1,5,0.00
2013-2-3,50,42,34,47,41,33,98,95,81,30.00,29.88,5,1,5,0.00
2013-2-4,54,44,38,47,42,38,98,90,63,29.91,29.62,5,1,5,0.00
2013-2-5,53,46,43,47,44,41,98,91,74,29.74,29.59,13,4,13,0.33
2013-2-6,53,47,42,43,41,39,98,81,60,29.77,29.53,13,4,13,0.08
2013-2-7,54,42,35,41,38,33,98,86,49,29.80,29.59,9,2,9,0.04
2013-2-8,49,38,32,41,35,32,98,91,63,29.94,29.80,6,1,6,0.00
2013-2-9,46,40,32,43,39,32,98,97,85,29.97,29.91,5,1,5,0.00
2013-2-10,47,43,38,44,40,36,98,89,72,30.00,29.94,5,1,5,0.00
2013-2-11,48,44,40,43,39,36,96,83,69,30.06,29.97,8,2,8,0.00
2013-2-12,60,50,45,48,45,43,98,85,55,30.12,30.03,12,4,12,0.00
2013-2-13,57,49,43,48,44,38,97,84,65,30.15,30.09,8,3,8,0.00
2013-2-14,58,48,39,46,42,38,96,82,52,30.21,30.15,6,1,6,0.00
2013-2-15,66,48,37,47,42,36,98,82,46,30.15,29.85,8,2,8,0.00
2013-2-16,59,44,36,46,40,35,98,86,49,29.94,29.88,10,2,10,0.00
2013-2-17,52,41,34,43,34,29,98,80,47,29.97,29.77,6,1,6,0.00
2013-2-18,51,41,34,38,34,32,98,80,52,29.77,29.41,10,2,10,0.00
2013-2-19,58,44,35,40,36,32,98,79,41,29.68,29.35,8,2,8,0.04
2013-2-20,50,41,32,43,37,32,98,89,55,29.77,29.68,10,2,10,0.04
2013-2-21,46,42,38,42,40,36,98,92,75,29.85,29.77,13,5,13,0.04
2013-2-22,47,44,38,46,41,35,98,91,81,29.83,29.56,19,6,19,0.43
2013-2-23,54,42,35,42,36,31,98,80,46,30.09,29.74,10,3,10,0.24
2013-2-24,56,44,34,38,34,30,97,72,41,30.09,29.74,13,3,13,0.00
2013-2-25,55,44,36,43,37,30,97,79,44,30.06,29.68,15,4,15,0.12
2013-2-26,55,43,35,39,36,33,98,78,47,30.06,29.91,10,2,10,0.00
2013-2-27,54,48,43,46,40,37,98,73,53,29.97,29.88,9,2,9,0.00
2013-2-28,59,53,46,55,51,46,98,93,77,30.09,29.85,13,5,13,0.04
2013-3-1,63,55,50,52,50,46,95,84,63,30.12,29.97,8,2,8,0.00
2013-3-2,56,50,39,50,46,35,98,87,71,29.97,29.83,7,2,7,0.00
2013-3-3,55,41,31,43,33,28,98,75,39,30.00,29.91,7,1,7,0.00
2013-3-4,65,43,33,36,32,29,98,71,33,29.91,29.59,8,2,8,0.00
2013-3-5,52,42,34,46,40,31,98,91,70,29.59,29.32,7,2,7,0.20
2013-3-6,46,43,40,44,41,38,98,94,82,29.62,29.20,12,3,12,0.31
2013-3-7,60,44,32,42,35,29,98,75,37,29.74,29.62,7,1,7,0.00
2013-3-8,63,44,31,42,34,30,98,73,36,29.88,29.68,7,1,7,0.00
2013-3-9,66,44,29,43,35,28,98,74,37,30.15,29.85,6,1,6,0.00
2013-3-10,52,44,33,45,39,31,96,85,65,30.15,30.09,6,0,6,0.00
2013-3-11,61,50,42,52,47,41,98,91,69,30.09,29.91,6,0,6,0.00
2013-3-12,66,53,44,52,48,44,98,84,55,29.91,29.83,8,2,8,0.00
2013-3-13,67,55,48,50,47,44,92,77,52,29.88,29.77,7,1,7,0.00
2013-3-14,61,53,45,51,46,40,98,79,50,29.88,29.71,9,2,9,0.00
2013-3-15,69,57,49,51,48,43,94,73,44,29.88,29.83,8,2,8,0.00
2013-3-16,52,47,40,49,44,36,98,89,74,29.85,29.68,13,3,13,0.31
2013-3-17,55,44,37,38,35,30,93,72,47,29.97,29.83,10,3,10,0.00
2013-3-18,60,44,31,39,33,29,98,70,38,29.94,29.80,7,1,7,0.00
2013-3-19,50,44,37,46,39,34,98,85,61,29.80,29.35,6,1,6,0.61
2013-3-20,56,50,46,52,44,36,98,81,60,29.68,29.24,17,6,17,0.37
2013-3-21,54,44,36,43,36,31,98,75,44,29.97,29.68,10,3,10,0.08
2013-3-22,54,40,31,39,34,28,98,83,42,30.06,29.97,7,1,7,0.08
2013-3-23,56,41,33,40,32,24,98,76,38,30.06,29.91,6,1,6,0.00
2013-3-24,61,45,35,38,33,30,93,67,37,29.91,29.74,7,2,7,0.00
2013-3-25,66,48,36,42,36,31,91,66,34,29.74,29.56,6,1,6,0.00
2013-3-26,56,47,38,48,43,36,98,88,70,29.71,29.62,5,0,5,0.04
2013-3-27,72,53,39,50,45,39,98,80,40,29.68,29.56,7,1,7,0.00
2013-3-28,72,55,43,51,46,40,98,76,35,29.80,29.65,6,1,6,0.04
2013-3-29,74,57,48,53,48,44,98,75,41,29.85,29.80,6,1,6,0.00
2013-3-30,80,61,44,50,46,42,97,62,31,29.85,29.62,9,3,9,0.00
2013-3-31,77,62,46,54,48,42,95,64,41,29.68,29.59,10,2,10,0.00
2013-4-1,71,58,52,52,49,47,89,73,49,29.85,29.68,10,2,10,0.00
2013-4-2,72,57,48,51,48,45,91,74,43,29.88,29.80,5,1,5,0.00
2013-4-3,66,54,41,53,48,40,98,82,55,29.85,29.59,6,1,6,0.00
2013-4-4,63,57,53,58,52,47,97,85,65,29.59,29.38,13,3,13,0.12
2013-4-5,60,54,52,54,50,47,97,86,65,29.62,29.50,12,4,12,0.16
2013-4-6,58,51,47,53,48,42,98,88,63,29.68,29.38,14,4,14,0.84
2013-4-7,54,49,43,50,44,38,98,82,68,29.65,29.26,24,6,24,0.33
2013-4-8,62,48,38,45,42,37,98,79,48,29.97,29.65,7,2,7,0.00
2013-4-9,60,50,38,48,43,37,98,80,54,30.03,29.91,5,1,5,0.00
2013-4-10,68,55,48,55,46,39,95,71,44,30.00,29.80,15,4,15,0.00
2013-4-11,66,49,37,45,40,35,98,72,40,30.03,29.85,7,1,7,0.00
2013-4-12,57,47,35,47,40,34,96,77,54,29.85,29.53,12,2,12,0.00
2013-4-13,58,47,39,41,36,31,91,68,41,29.77,29.59,13,4,13,0.00
2013-4-14,55,44,39,48,40,35,98,88,64,29.77,29.62,7,2,7,0.48
2013-4-15,63,48,37,45,38,30,98,74,35,29.83,29.62,8,1,8,0.04
2013-4-16,65,50,36,45,39,32,98,70,34,30.06,29.83,8,1,8,0.00
2013-4-17,66,49,34,45,38,32,97,70,38,30.15,30.06,8,1,8,0.00
2013-4-18,67,55,46,49,43,39,90,67,42,30.15,30.00,6,1,6,0.00
2013-4-19,63,53,50,55,49,46,98,86,62,30.00,29.83,12,4,12,0.35
2013-4-20,66,54,47,47,44,40,92,70,43,30.00,29.91,7,2,7,0.00
2013-4-21,60,52,47,48,44,40,88,74,55,29.97,29.91,9,2,9,0.00
2013-4-22,71,53,38,43,36,26,98,58,26,30.06,29.97,12,4,12,0.00
2013-4-23,74,55,38,40,33,27,75,48,23,30.03,29.80,9,2,9,0.00
2013-4-24,80,60,41,41,34,30,70,42,22,29.91,29.68,10,3,10,0.00
2013-4-25,85,61,39,48,41,32,87,52,27,29.83,29.68,7,1,7,0.00
2013-4-26,87,62,43,51,44,37,95,57,22,29.91,29.83,7,1,7,0.00
2013-4-27,80,61,42,52,42,36,95,56,24,29.94,29.85,9,2,9,0.00
2013-4-28,76,60,52,51,44,36,84,59,31,29.94,29.77,13,3,13,0.00
2013-4-29,71,55,38,51,39,28,93,57,33,29.91,29.74,12,4,12,0.00
2013-4-30,66,47,34,42,33,28,93,62,36,30.09,29.91,7,1,7,0.00
2013-5-1,74,54,34,41,35,30,89,53,28,30.15,30.09,9,3,9,0.00
2013-5-2,85,65,43,43,36,28,67,36,21,30.09,29.91,9,3,9,0.00
2013-5-3,86,64,42,48,40,34,77,45,23,29.97,29.80,10,2,10,0.00
2013-5-4,87,68,49,47,39,31,70,40,19,29.80,29.56,20,4,20,0.00
2013-5-5,92,71,53,44,39,34,57,34,18,29.56,29.38,14,4,14,0.00
2013-5-6,88,68,52,54,48,41,76,52,29,29.59,29.44,8,3,8,0.00
2013-5-7,83,62,45,53,48,43,95,64,34,29.71,29.59,8,2,8,0.00
2013-5-8,73,57,44,55,49,43,98,77,46,29.83,29.71,6,1,6,0.00
2013-5-9,86,63,45,58,50,44,98,69,31,29.85,29.74,8,2,8,0.00
2013-5-10,91,69,49,59,53,48,97,62,28,29.85,29.77,7,1,7,0.00
2013-5-11,91,70,51,60,54,48,91,61,29,29.85,29.68,6,1,6,0.00
2013-5-12,80,65,58,60,56,53,96,76,47,29.80,29.74,7,1,7,0.04
2013-5-13,73,60,49,58,53,45,98,79,43,29.88,29.74,13,3,13,0.00
2013-5-14,76,58,42,51,42,32,98,62,26,29.88,29.77,7,1,7,0.00
2013-5-15,65,54,47,54,48,42,91,79,60,29.80,29.68,8,1,8,0.08
2013-5-16,67,57,52,58,53,50,98,87,57,29.71,29.62,8,1,8,0.08
2013-5-17,70,57,48,52,48,43,98,76,42,29.80,29.68,8,2,8,0.00
2013-5-18,62,54,48,54,50,46,98,88,62,29.94,29.77,7,1,7,0.17
2013-5-19,71,58,48,55,49,44,98,75,45,30.06,29.94,7,2,7,0.04
2013-5-20,80,58,42,52,45,37,98,66,30,30.00,29.59,6,2,6,0.00
2013-5-21,61,50,43,49,45,41,97,85,58,29.68,29.50,10,3,10,0.31
2013-5-22,50,46,43,48,44,40,98,94,90,29.65,29.59,13,5,13,0.51
2013-5-23,60,50,46,50,46,42,98,88,53,29.68,29.62,11,4,11,0.59
2013-5-24,67,54,48,51,48,44,98,82,48,29.74,29.65,14,4,14,0.08
2013-5-25,74,59,49,53,48,42,97,71,34,29.74,29.59,9,2,9,0.04
2013-5-26,72,59,53,56,51,46,98,76,46,29.71,29.62,10,3,10,0.20
2013-5-27,72,57,51,61,52,47,98,83,56,29.68,29.41,14,3,14,0.74
2013-5-28,72,59,52,52,48,42,94,71,41,29.62,29.44,11,3,11,0.12
2013-5-29,70,56,50,58,51,44,98,82,47,29.74,29.32,16,4,16,0.82
2013-5-30,70,57,50,51,47,42,93,70,43,29.91,29.74,8,2,8,0.00
2013-5-31,75,61,49,53,46,41,97,62,34,30.00,29.88,8,2,8,0.00
2013-6-1,84,63,45,56,50,44,98,68,34,29.91,29.68,6,1,6,0.00
2013-6-2,79,63,53,54,50,46,89,65,40,29.77,29.71,8,1,8,0.00
2013-6-3,80,64,47,54,48,44,98,59,35,29.80,29.71,8,2,8,0.00
2013-6-4,89,73,48,71,50,45,93,46,30,29.77,29.62,7,2,7,0.00
2013-6-5,92,72,53,60,53,47,95,56,24,29.74,29.65,7,2,7,0.00
2013-6-6,89,72,54,60,53,40,92,55,30,29.74,29.65,7,1,7,0.00
2013-6-7,88,68,50,57,48,40,86,52,25,29.83,29.74,8,2,8,0.00
2013-6-8,85,67,48,51,47,42,95,54,26,29.85,29.74,8,2,8,0.00
2013-6-9,81,64,51,52,46,42,86,56,31,29.80,29.65,10,3,10,0.00
2013-6-10,80,61,44,50,43,40,94,56,32,29.71,29.56,7,2,7,0.00
2013-6-11,74,60,52,52,45,41,79,60,40,29.83,29.68,10,2,10,0.00
2013-6-12,69,59,51,51,47,44,90,67,42,29.85,29.80,7,2,7,0.00
2013-6-13,69,57,50,59,51,46,98,82,58,29.97,29.85,12,3,12,0.29
2013-6-14,75,60,47,56,48,44,98,71,42,29.97,29.65,10,2,10,0.00
2013-6-15,86,66,48,58,51,46,98,64,31,29.71,29.59,7,1,7,0.00
2013-6-16,80,64,49,58,52,48,98,68,40,29.80,29.71,6,1,6,0.00
2013-6-17,84,66,50,56,50,46,98,62,30,29.80,29.62,8,2,8,0.00
2013-6-18,77,63,52,57,49,42,92,62,34,29.71,29.62,8,2,8,0.04
2013-6-19,76,60,48,56,49,44,96,70,38,29.77,29.65,8,2,8,0.00
2013-6-20,74,61,53,57,50,44,88,71,47,29.80,29.74,9,2,9,0.08
2013-6-21,80,64,54,54,50,43,91,64,32,29.85,29.80,6,1,6,0.00
2013-6-22,87,67,50,57,50,43,98,60,25,29.80,29.53,5,1,5,0.00
2013-6-23,74,64,58,63,58,51,98,81,60,29.53,29.32,5,1,5,0.20
2013-6-24,70,62,56,62,55,50,98,80,54,29.41,29.32,9,3,9,0.04
2013-6-25,72,62,56,64,57,51,98,84,53,29.56,29.35,12,2,12,0.12
2013-6-26,78,65,59,63,58,53,98,78,46,29.74,29.53,7,2,7,0.17
2013-6-27,88,71,59,65,60,57,98,73,42,29.83,29.68,7,1,7,0.00
2013-6-28,96,76,59,69,62,56,98,66,33,29.83,29.68,6,1,6,0.00
2013-6-29,95,76,60,63,59,56,93,61,29,29.80,29.62,6,1,6,0.00
2013-6-30,100,79,61,68,62,59,95,61,28,29.65,29.50,6,1,6,0.00
2013-7-1,87,66,63,69,62,44,95,88,50,29.68,29.59,4,0,4,0.00
2013-7-2,97,77,62,66,60,51,93,59,32,29.77,29.68,6,2,6,0.00
2013-7-3,91,73,57,55,48,40,80,46,19,29.83,29.68,7,2,7,0.00
2013-7-4,82,66,52,53,49,42,83,56,34,29.83,29.71,8,3,8,0.00
2013-7-5,81,65,52,56,51,47,87,65,36,29.77,29.62,8,1,8,0.00
2013-7-6,81,64,50,58,53,48,96,69,41,29.65,29.53,7,2,7,0.00
2013-7-7,86,68,52,60,55,51,98,68,39,29.65,29.56,7,2,7,0.00
2013-7-8,87,68,52,56,53,50,94,62,32,29.77,29.65,7,2,7,0.00
2013-7-9,94,74,55,61,56,52,96,59,29,29.74,29.62,8,2,8,0.00
2013-7-10,89,71,56,57,51,44,82,51,32,29.77,29.59,8,3,8,0.00
2013-7-11,81,65,50,50,46,44,85,54,31,29.77,29.62,9,3,9,0.00
2013-7-12,83,65,47,52,47,44,91,56,31,29.77,29.68,9,2,9,0.00
2013-7-13,86,67,47,52,45,39,90,52,22,29.85,29.71,10,3,10,0.00
2013-7-14,94,80,59,54,47,39,50,32,22,29.74,29.62,8,3,8,0.00
2013-7-15,90,70,51,52,47,38,83,47,27,29.71,29.47,8,2,8,0.00
2013-7-16,96,71,56,61,53,45,81,57,27,29.68,29.44,8,2,8,0.00
2013-7-17,85,68,58,57,54,50,84,64,35,29.85,29.68,7,2,7,0.00
2013-7-18,89,69,52,58,53,47,97,63,27,29.88,29.74,8,2,8,0.00
2013-7-19,89,68,52,60,56,51,96,68,35,29.83,29.68,7,2,7,0.00
2013-7-20,85,66,52,60,55,51,96,71,40,29.77,29.62,7,2,7,0.00
2013-7-21,88,68,51,59,54,48,96,65,35,29.68,29.56,8,2,8,0.00
2013-7-22,89,70,56,59,55,50,95,63,29,29.74,29.62,7,2,7,0.00
2013-7-23,95,73,54,62,57,53,97,62,30,29.74,29.62,8,2,8,0.00
2013-7-24,97,76,57,61,55,50,94,55,26,29.74,29.62,7,2,7,0.00
2013-7-25,94,75,57,57,52,45,90,50,20,29.77,29.68,9,2,9,0.00
2013-7-26,97,73,52,56,48,37,85,47,20,29.83,29.74,8,2,8,0.00
2013-7-27,90,69,53,52,46,40,81,46,27,29.85,29.68,7,2,7,0.00
2013-7-28,84,64,47,56,49,44,95,61,33,29.77,29.65,7,2,7,0.00
2013-7-29,87,67,56,55,51,46,80,59,29,29.71,29.62,7,1,7,0.00
2013-7-30,87,68,50,59,53,49,97,65,32,29.83,29.71,7,1,7,0.00
2013-7-31,85,66,54,61,56,52,97,73,42,29.80,29.71,7,1,7,0.00
2013-8-1,69,63,59,56,54,53,83,74,61,29.80,29.74,7,2,7,0.00
2013-8-2,80,66,58,58,54,49,91,68,40,29.83,29.77,6,1,6,0.00
2013-8-3,86,69,54,60,56,53,96,67,37,29.80,29.65,8,2,8,0.00
2013-8-4,95,74,55,63,57,52,97,62,28,29.71,29.56,7,1,7,0.00
2013-8-5,95,75,57,64,57,50,96,60,27,29.71,29.56,7,1,7,0.00
2013-8-6,100,74,52,57,48,40,82,45,16,29.68,29.56,8,1,8,0.00
2013-8-7,94,71,55,57,52,49,89,55,28,29.71,29.62,7,2,7,0.00
2013-8-8,87,70,57,60,56,52,87,63,37,29.74,29.59,8,2,8,0.00
2013-8-9,87,71,59,64,56,50,90,63,32,29.62,29.53,10,1,10,0.00
2013-8-10,88,70,58,63,59,54,98,72,38,29.74,29.59,7,1,7,0.00
2013-8-11,80,65,56,61,57,54,95,76,47,29.77,29.68,6,1,6,0.00
2013-8-12,80,67,56,61,56,52,94,72,46,29.77,29.68,6,1,6,0.00
2013-8-13,90,69,50,62,53,49,98,64,28,29.80,29.59,6,1,6,0.00
2013-8-14,92,70,54,61,54,46,97,64,22,29.65,29.59,6,1,6,0.00
2013-8-15,82,71,62,67,63,59,96,77,55,29.65,29.62,6,1,6,0.00
2013-8-16,91,73,62,68,63,51,98,74,41,29.74,29.65,5,1,5,0.00
2013-8-17,90,70,54,59,55,52,95,63,32,29.77,29.68,7,1,7,0.00
2013-8-18,91,71,55,63,56,52,98,65,31,29.80,29.71,6,2,6,0.00
2013-8-19,93,71,55,60,54,49,97,60,28,29.80,29.71,7,2,7,0.00
2013-8-20,88,68,50,55,50,44,94,57,24,29.80,29.65,10,2,10,0.00
2013-8-21,94,71,52,56,51,48,89,55,27,29.68,29.50,7,2,7,0.00
2013-8-22,87,72,56,60,55,51,89,59,31,29.59,29.50,6,1,6,0.00
2013-8-23,83,66,57,61,57,53,98,75,40,29.65,29.56,6,2,6,0.04
2013-8-24,81,67,59,62,56,51,95,70,38,29.59,29.53,6,1,6,0.00
2013-8-25,79,63,54,64,57,51,97,81,52,29.62,29.59,6,1,6,0.12
2013-8-26,85,67,58,64,56,45,98,74,30,29.65,29.59,13,2,13,0.04
2013-8-27,88,71,60,62,58,54,97,69,38,29.65,29.47,6,2,6,0.00
2013-8-28,85,71,59,66,60,57,98,72,46,29.59,29.53,5,1,5,0.00
2013-8-29,83,70,64,71,63,59,98,80,50,29.77,29.53,10,2,10,0.31
2013-8-30,88,71,61,68,60,53,98,70,34,29.83,29.71,6,1,6,0.00
2013-8-31,94,71,55,61,57,54,98,66,30,29.74,29.50,7,1,7,0.00
2013-9-1,91,70,55,59,54,49,94,60,28,29.59,29.47,6,1,6,0.00
2013-9-2,87,71,61,61,55,49,89,60,32,29.62,29.56,9,1,9,0.00
2013-9-3,84,68,60,65,58,51,98,73,36,29.68,29.62,5,1,5,0.25
2013-9-4,80,67,57,62,58,53,98,74,45,29.74,29.68,6,1,6,0.00
2013-9-5,68,63,58,64,61,58,98,94,80,29.74,29.65,8,1,8,1.02
2013-9-6,73,64,58,64,60,57,98,88,62,29.83,29.71,10,3,10,0.97
2013-9-7,83,66,54,63,58,53,98,78,42,29.80,29.65,6,1,6,0.00
2013-9-8,88,70,56,64,58,52,98,72,34,29.74,29.65,9,2,9,0.00
2013-9-9,88,70,56,64,60,56,98,76,41,29.71,29.59,7,2,7,0.00
2013-9-10,93,74,58,66,60,56,98,68,33,29.62,29.44,8,2,8,0.00
2013-9-11,100,76,58,65,59,56,95,61,28,29.62,29.47,4,1,4,0.00
2013-9-12,87,68,56,63,60,55,98,77,42,29.71,29.59,4,1,4,0.00
2013-9-13,77,64,56,66,60,56,98,88,63,29.65,29.53,4,1,4,0.00
2013-9-14,84,67,59,64,61,58,98,84,49,29.56,29.38,6,1,6,0.00
2013-9-15,71,63,59,62,60,58,98,91,69,29.59,29.41,6,2,6,0.00
2013-9-16,77,64,59,59,57,53,96,79,48,29.68,29.59,9,2,9,0.00
2013-9-17,72,61,54,59,54,44,98,78,42,29.71,29.56,7,1,7,0.00
2013-9-18,78,62,50,58,51,44,98,73,33,29.77,29.68,6,2,6,0.00
2013-9-19,84,60,44,56,49,43,98,73,31,29.68,29.47,5,1,5,0.00
2013-9-20,79,59,47,59,53,46,98,82,41,29.47,29.32,10,2,10,0.00
2013-9-21,74,60,53,61,55,50,98,86,46,29.47,29.35,10,1,10,0.04
2013-9-22,64,58,56,59,55,50,98,92,63,29.56,29.35,19,4,19,0.48
2013-9-23,65,58,54,61,56,53,98,95,71,29.68,29.56,8,2,8,0.83
2013-9-24,64,55,51,58,53,50,98,93,61,29.68,29.53,6,1,6,0.21
2013-9-25,64,54,48,54,50,44,98,87,54,29.71,29.53,6,1,6,0.00
2013-9-26,72,54,47,55,49,45,98,87,44,29.85,29.71,6,1,6,0.12
2013-9-27,59,52,43,56,50,43,98,93,76,29.85,29.59,13,4,13,0.16
2013-9-28,66,59,52,60,56,52,98,93,72,29.59,29.20,20,6,20,1.11
2013-9-29,57,54,52,56,53,51,98,96,91,29.38,29.09,14,5,14,1.31
2013-9-30,63,54,51,54,50,46,98,86,66,29.68,29.32,13,5,13,0.31
2013-10-1,65,52,43,57,49,43,98,89,50,29.85,29.65,7,2,7,0.41
2013-10-2,58,47,42,53,46,41,98,95,76,29.85,29.74,7,1,7,0.12
2013-10-3,65,49,41,51,45,40,98,87,46,30.09,29.85,6,1,6,0.00
2013-10-4,68,50,40,52,46,40,98,87,52,30.12,30.00,6,1,6,0.00
2013-10-5,76,53,38,55,45,37,98,80,36,30.00,29.80,5,1,5,0.00
2013-10-6,79,55,40,56,45,38,98,75,32,29.80,29.65,8,1,8,0.00
2013-10-7,68,56,52,55,49,44,98,79,45,29.83,29.65,7,3,7,0.08
2013-10-8,59,52,42,55,48,41,96,86,69,29.83,29.65,8,2,8,0.04
2013-10-9,62,49,39,46,43,39,98,83,50,29.80,29.65,6,2,6,0.00
2013-10-10,64,52,43,52,47,43,98,85,50,29.77,29.62,7,1,7,0.00
2013-10-11,63,52,43,51,46,40,98,83,47,29.83,29.77,5,1,5,0.00
2013-10-12,65,50,42,56,46,42,98,89,55,29.85,29.74,5,1,5,0.04
2013-10-13,66,49,40,49,44,40,98,85,46,29.97,29.83,7,1,7,0.00
2013-10-14,69,52,39,50,43,38,98,75,38,30.00,29.94,9,2,9,0.00
2013-10-15,71,55,45,44,40,36,81,61,33,29.97,29.80,8,3,8,0.00
2013-10-16,69,50,38,49,42,36,98,77,40,29.83,29.77,6,1,6,0.00
2013-10-17,69,51,39,50,45,39,98,81,44,29.88,29.80,7,1,7,0.00
2013-10-18,74,52,36,57,42,36,98,75,34,29.83,29.74,8,1,8,0.00
2013-10-19,73,50,36,53,44,36,98,81,44,29.83,29.77,4,1,4,0.00
2013-10-20,70,49,37,52,44,37,98,85,45,29.83,29.71,6,1,6,0.00
2013-10-21,76,53,39,55,48,38,98,84,45,29.77,29.62,5,1,5,0.00
2013-10-22,79,54,39,60,47,38,98,83,42,29.71,29.62,6,1,6,0.00
2013-10-23,74,52,40,57,47,40,98,86,46,29.68,29.59,4,0,4,0.00
2013-10-24,66,49,43,55,47,43,98,93,65,29.77,29.65,5,1,5,0.00
2013-10-25,54,50,41,53,49,40,98,96,90,29.94,29.77,5,1,5,0.00
2013-10-26,54,51,47,51,50,46,98,95,84,29.94,29.83,5,1,5,0.00
2013-10-27,59,51,48,56,47,43,98,88,60,29.85,29.53,13,2,13,0.13
2013-10-28,63,49,36,45,36,28,98,65,34,29.59,29.50,13,3,13,0.00
2013-10-29,63,43,32,39,32,28,96,70,33,29.74,29.59,6,1,6,0.00
2013-10-30,60,44,30,46,37,29,98,79,47,29.85,29.74,5,1,5,0.00
2013-10-31,62,54,47,53,49,45,97,82,69,29.94,29.83,10,2,10,0.00
2013-11-1,64,53,45,53,50,44,98,90,66,29.94,29.59,5,1,5,0.04
2013-11-2,59,51,45,52,46,39,98,83,52,29.74,29.41,13,4,13,0.57
2013-11-3,53,46,40,46,43,40,98,89,64,29.83,29.74,8,3,8,0.16
2013-11-4,52,48,45,49,46,44,98,94,79,29.83,29.77,8,3,8,0.08
2013-11-5,55,52,48,54,51,48,98,97,91,29.91,29.77,10,3,10,0.12
2013-11-6,55,52,50,55,52,49,98,98,98,29.94,29.77,5,1,5,0.31
2013-11-7,58,52,48,56,49,44,98,90,67,29.80,29.56,13,4,13,0.33
2013-11-8,54,49,43,50,46,42,98,93,79,29.88,29.80,7,2,7,0.04
2013-11-9,50,46,40,48,45,40,98,96,85,29.80,29.71,4,0,4,0.00
2013-11-10,60,47,41,51,45,40,98,92,69,29.77,29.71,6,1,6,0.00
2013-11-11,58,45,40,51,44,39,98,95,77,29.83,29.68,4,0,4,0.00
2013-11-12,61,50,45,59,50,44,98,97,88,30.09,29.74,4,0,4,0.20
2013-11-13,52,49,46,52,48,45,98,98,94,30.15,29.97,4,0,4,0.00
2013-11-14,53,47,39,52,46,38,98,94,78,29.97,29.77,6,1,6,0.00
2013-11-15,51,45,40,48,44,40,98,94,77,29.80,29.24,15,4,15,0.04
2013-11-16,51,48,45,48,42,39,98,81,65,29.53,29.24,12,3,12,0.04
2013-11-17,57,51,46,47,44,42,95,80,67,29.68,29.53,14,5,14,0.00
2013-11-18,55,52,49,51,46,42,98,82,63,29.65,29.41,14,5,14,0.24
2013-11-19,53,48,34,52,46,30,98,91,66,29.71,29.38,10,3,10,0.72
2013-11-20,48,37,30,33,29,19,98,75,47,30.03,29.71,12,4,12,0.00
2013-11-21,50,38,30,21,17,11,60,44,29,30.21,30.03,13,5,13,0.00
2013-11-22,52,36,23,32,19,10,90,52,31,30.21,30.03,10,2,10,0.00
2013-11-23,56,38,26,33,21,15,85,53,32,30.03,29.83,4,1,4,0.00
2013-11-24,56,34,25,34,25,18,93,70,40,29.94,29.80,0,0,0,0.00
2013-11-25,52,34,25,37,28,23,98,80,48,30.00,29.94,0,0,0,0.00
2013-11-26,47,36,27,38,32,25,98,87,67,29.94,29.74,4,0,4,0.00
2013-11-27,55,38,30,40,33,29,98,83,46,29.74,29.62,6,1,6,0.00
2013-11-28,57,36,28,41,31,27,98,84,51,29.85,29.68,5,0,5,0.00
2013-11-29,44,35,27,41,34,27,98,95,84,30.03,29.85,5,0,5,0.00
2013-11-30,51,44,39,49,42,38,98,94,79,30.06,29.88,14,1,14,0.00
2013-12-1,56,53,50,55,52,46,98,95,85,29.88,29.62,18,8,18,0.82
2013-12-2,52,42,32,51,39,32,98,89,62,29.71,29.59,10,3,10,0.16
2013-12-3,46,35,27,40,27,15,98,77,39,29.94,29.71,15,2,15,0.00
2013-12-4,40,30,23,23,17,10,88,60,39,29.97,29.91,8,2,8,0.00
2013-12-5,33,24,16,23,16,10,90,71,54,29.94,29.83,5,1,5,0.00
2013-12-6,32,28,25,19,12,7,78,52,42,29.83,29.59,12,5,12,0.00
2013-12-7,32,23,14,9,5,1,59,45,37,30.06,29.74,14,4,14,0.00
2013-12-8,32,17,10,13,6,-2,78,61,45,30.24,30.06,5,1,5,0.00
2013-12-9,28,21,12,20,14,7,85,74,63,30.27,30.18,5,1,5,0.00
2013-12-10,38,28,21,27,22,19,89,77,60,30.21,30.06,4,1,4,0.00
2013-12-11,31,26,20,30,25,18,98,95,90,30.06,29.88,6,1,6,0.00
2013-12-12,32,28,23,32,28,22,98,98,98,29.88,29.80,4,2,4,0.04
2013-12-13,49,40,32,48,39,32,98,98,98,30.09,29.80,3,0,3,0.00
2013-12-14,40,38,36,40,38,36,98,98,98,30.12,30.03,5,1,5,0.00
2013-12-15,49,40,35,48,39,35,98,98,92,30.15,30.06,4,0,4,0.00
2013-12-16,44,41,39,43,40,39,98,98,98,30.15,29.91,6,2,6,0.00
2013-12-17,39,38,36,38,37,36,98,98,98,29.91,29.85,5,1,5,0.00
2013-12-18,42,38,30,42,37,30,98,98,98,29.85,29.74,5,0,5,0.04
2013-12-19,38,32,28,36,31,28,98,96,84,29.97,29.80,6,1,6,0.00
2013-12-20,46,38,32,46,37,31,98,96,83,29.91,29.56,16,5,16,0.08
2013-12-21,54,48,45,50,45,44,98,91,72,29.91,29.62,9,3,9,0.00
2013-12-22,56,48,43,51,47,42,98,95,78,30.03,29.88,9,3,9,0.00
2013-12-23,52,45,33,51,44,33,98,98,91,30.21,29.97,14,2,14,0.08
2013-12-24,46,37,32,44,36,32,98,97,82,30.27,30.15,6,2,6,0.00
2013-12-25,40,36,34,38,36,34,98,97,88,30.15,30.06,5,1,5,0.00
2013-12-26,36,35,33,35,34,33,98,98,98,30.06,29.91,4,1,4,0.00
2013-12-27,36,34,31,36,34,31,98,98,98,30.06,29.88,5,1,5,0.00
2013-12-28,44,38,33,42,37,33,98,95,87,30.15,30.06,4,0,4,0.00
2013-12-29,41,38,34,40,37,33,98,97,90,30.12,29.94,5,1,5,0.00
2013-12-30,42,38,33,41,37,33,98,97,90,29.97,29.85,5,1,5,0.04
2013-12-31,49,41,35,47,40,34,98,96,85,30.00,29.88,5,1,5,0.04
2014-1-1,44,40,36,44,40,35,98,98,98,30.03,29.91,4,1,4,0.00
2014-1-2,46,40,37,45,40,37,98,98,94,29.94,29.71,6,1,6,0.08